sensor_id;sensor_type;location;lat;lon;timestamp;pressure;altitude;pressure_sealevel;temperature;humidity
5296;BME280;2670;42.720;23.336;2022-07-23T00:01:52;-23088.75;;;22.34;nan
5296;BME280;2670;42.720;23.336;2022-07-23T00:04:19;-23087.28;;;22.29;nan
5296;BME280;2670;42.720;23.336;2022-07-23T00:06:46;-23085.09;;;22.21;nan
5296;BME280;2670;42.720;23.336;2022-07-23T00:09:12;-23085.84;;;22.24;nan
5296;BME280;2670;42.720;23.336;2022-07-23T00:11:39;-23083.34;;;22.15;nan
5296;BME280;2670;42.720;23.336;2022-07-23T00:14:06;-23081.88;;;22.10;nan
5296;BME280;2670;42.720;23.336;2022-07-23T00:16:33;-23078.53;;;21.98;nan
5296;BME280;2670;42.720;23.336;2022-07-23T00:19:01;-23079.41;;;22.01;nan
5296;BME280;2670;42.720;23.336;2022-07-23T00:21:28;-23082.63;;;22.12;nan
5296;BME280;2670;42.720;23.336;2022-07-23T00:23:55;-23077.94;;;21.96;nan
5296;BME280;2670;42.720;23.336;2022-07-23T00:26:21;-23078.25;;;21.97;nan
5296;BME280;2670;42.720;23.336;2022-07-23T00:28:48;-23079.13;;;22.00;nan
5296;BME280;2670;42.720;23.336;2022-07-23T00:31:15;-23078.38;;;21.98;nan
5296;BME280;2670;42.720;23.336;2022-07-23T00:33:41;-23081.00;;;22.07;nan
5296;BME280;2670;42.720;23.336;2022-07-23T00:36:10;-23077.94;;;21.96;nan
5296;BME280;2670;42.720;23.336;2022-07-23T00:38:36;-23075.47;;;21.87;nan
5296;BME280;2670;42.720;23.336;2022-07-23T00:41:03;-23071.53;;;21.74;nan
5296;BME280;2670;42.720;23.336;2022-07-23T00:43:30;-23070.66;;;21.71;nan
5296;BME280;2670;42.720;23.336;2022-07-23T00:45:57;-23069.34;;;21.66;nan
5296;BME280;2670;42.720;23.336;2022-07-23T00:48:23;-23070.34;;;21.70;nan
5296;BME280;2670;42.720;23.336;2022-07-23T00:50:50;-23068.75;;;21.64;nan
5296;BME280;2670;42.720;23.336;2022-07-23T00:53:19;-23068.59;;;21.63;nan
5296;BME280;2670;42.720;23.336;2022-07-23T00:55:47;-23064.94;;;21.51;nan
5296;BME280;2670;42.720;23.336;2022-07-23T00:58:14;-23065.97;;;21.54;nan
5296;BME280;2670;42.720;23.336;2022-07-23T01:00:42;-23064.50;;;21.49;nan
5296;BME280;2670;42.720;23.336;2022-07-23T01:03:08;-23063.63;;;21.46;nan
5296;BME280;2670;42.720;23.336;2022-07-23T01:05:35;-23059.38;;;21.31;nan
5296;BME280;2670;42.720;23.336;2022-07-23T01:08:02;-23058.94;;;21.30;nan
5296;BME280;2670;42.720;23.336;2022-07-23T01:10:31;-23059.09;;;21.30;nan
5296;BME280;2670;42.720;23.336;2022-07-23T01:12:59;-23058.06;;;21.27;nan
5296;BME280;2670;42.720;23.336;2022-07-23T01:15:27;-23055.59;;;21.18;nan
5296;BME280;2670;42.720;23.336;2022-07-23T01:17:54;-23053.97;;;21.12;nan
5296;BME280;2670;42.720;23.336;2022-07-23T01:20:21;-23052.09;;;21.06;nan
5296;BME280;2670;42.720;23.336;2022-07-23T01:22:50;-23049.44;;;20.97;nan
5296;BME280;2670;42.720;23.336;2022-07-23T01:25:17;-23050.31;;;21.00;nan
5296;BME280;2670;42.720;23.336;2022-07-23T01:27:43;-23050.03;;;20.99;nan
5296;BME280;2670;42.720;23.336;2022-07-23T01:30:11;-23050.91;;;21.02;nan
5296;BME280;2670;42.720;23.336;2022-07-23T01:32:38;-23048.72;;;20.94;nan
5296;BME280;2670;42.720;23.336;2022-07-23T01:35:06;-23048.00;;;20.92;nan
5296;BME280;2670;42.720;23.336;2022-07-23T01:37:33;-23048.28;;;20.93;nan
5296;BME280;2670;42.720;23.336;2022-07-23T01:40:02;-23051.34;;;21.03;nan
5296;BME280;2670;42.720;23.336;2022-07-23T01:42:29;-23052.53;;;21.07;nan
5296;BME280;2670;42.720;23.336;2022-07-23T01:44:56;-23060.28;;;21.34;nan
5296;BME280;2670;42.720;23.336;2022-07-23T01:47:23;-23057.06;;;21.23;nan
5296;BME280;2670;42.720;23.336;2022-07-23T01:49:49;-23063.03;;;21.44;nan
5296;BME280;2670;42.720;23.336;2022-07-23T01:52:16;-23059.53;;;21.32;nan
5296;BME280;2670;42.720;23.336;2022-07-23T01:54:43;-23055.72;;;21.19;nan
5296;BME280;2670;42.720;23.336;2022-07-23T01:57:11;-23062.47;;;21.42;nan
5296;BME280;2670;42.720;23.336;2022-07-23T01:59:38;-23057.06;;;21.23;nan
5296;BME280;2670;42.720;23.336;2022-07-23T02:02:05;-23055.44;;;21.18;nan
5296;BME280;2670;42.720;23.336;2022-07-23T02:04:32;-23050.31;;;21.00;nan
5296;BME280;2670;42.720;23.336;2022-07-23T02:07:00;-23046.97;;;20.88;nan
5296;BME280;2670;42.720;23.336;2022-07-23T02:09:27;-23042.44;;;20.72;nan
5296;BME280;2670;42.720;23.336;2022-07-23T02:11:54;-23039.66;;;20.62;nan
5296;BME280;2670;42.720;23.336;2022-07-23T02:14:22;-23046.38;;;20.86;nan
5296;BME280;2670;42.720;23.336;2022-07-23T02:16:49;-23047.13;;;20.88;nan
5296;BME280;2670;42.720;23.336;2022-07-23T02:19:16;-23046.97;;;20.88;nan
5296;BME280;2670;42.720;23.336;2022-07-23T02:21:43;-23040.97;;;20.67;nan
5296;BME280;2670;42.720;23.336;2022-07-23T02:24:10;-23037.75;;;20.56;nan
5296;BME280;2670;42.720;23.336;2022-07-23T02:26:37;-23037.75;;;20.56;nan
5296;BME280;2670;42.720;23.336;2022-07-23T02:29:04;-23039.50;;;20.62;nan
5296;BME280;2670;42.720;23.336;2022-07-23T02:31:32;-23042.56;;;20.73;nan
5296;BME280;2670;42.720;23.336;2022-07-23T02:34:00;-23038.34;;;20.58;nan
5296;BME280;2670;42.720;23.336;2022-07-23T02:36:27;-23033.66;;;20.42;nan
5296;BME280;2670;42.720;23.336;2022-07-23T02:38:54;-23033.78;;;20.42;nan
5296;BME280;2670;42.720;23.336;2022-07-23T02:41:21;-23032.63;;;20.38;nan
5296;BME280;2670;42.720;23.336;2022-07-23T02:43:48;-23032.03;;;20.36;nan
5296;BME280;2670;42.720;23.336;2022-07-23T02:46:14;-23031.91;;;20.35;nan
5296;BME280;2670;42.720;23.336;2022-07-23T02:48:43;-23032.03;;;20.36;nan
5296;BME280;2670;42.720;23.336;2022-07-23T02:51:09;-23031.75;;;20.35;nan
5296;BME280;2670;42.720;23.336;2022-07-23T02:53:36;-23031.47;;;20.34;nan
5296;BME280;2670;42.720;23.336;2022-07-23T02:56:03;-23030.72;;;20.31;nan
5296;BME280;2670;42.720;23.336;2022-07-23T02:58:30;-23028.53;;;20.24;nan
5296;BME280;2670;42.720;23.336;2022-07-23T03:00:56;-23025.31;;;20.12;nan
5296;BME280;2670;42.720;23.336;2022-07-23T03:03:23;-23023.56;;;20.06;nan
5296;BME280;2670;42.720;23.336;2022-07-23T03:05:51;-23022.81;;;20.04;nan
5296;BME280;2670;42.720;23.336;2022-07-23T03:08:18;-23023.41;;;20.06;nan
5296;BME280;2670;42.720;23.336;2022-07-23T03:10:45;-23019.16;;;19.91;nan
5296;BME280;2670;42.720;23.336;2022-07-23T03:13:11;-23021.50;;;19.99;nan
5296;BME280;2670;42.720;23.336;2022-07-23T03:15:38;-23022.09;;;20.01;nan
5296;BME280;2670;42.720;23.336;2022-07-23T03:18:05;-23021.66;;;20.00;nan
5296;BME280;2670;42.720;23.336;2022-07-23T03:20:32;-23019.44;;;19.92;nan
5296;BME280;2670;42.720;23.336;2022-07-23T03:23:00;-23020.63;;;19.96;nan
5296;BME280;2670;42.720;23.336;2022-07-23T03:25:26;-23019.44;;;19.92;nan
5296;BME280;2670;42.720;23.336;2022-07-23T03:27:53;-23014.03;;;19.73;nan
5296;BME280;2670;42.720;23.336;2022-07-23T03:30:20;-23017.84;;;19.86;nan
5296;BME280;2670;42.720;23.336;2022-07-23T03:32:47;-23015.66;;;19.79;nan
5296;BME280;2670;42.720;23.336;2022-07-23T03:35:14;-23015.78;;;19.79;nan
5296;BME280;2670;42.720;23.336;2022-07-23T03:37:40;-23016.09;;;19.80;nan
5296;BME280;2670;42.720;23.336;2022-07-23T03:40:09;-23019.00;;;19.90;nan
5296;BME280;2670;42.720;23.336;2022-07-23T03:42:36;-23014.78;;;19.76;nan
5296;BME280;2670;42.720;23.336;2022-07-23T03:45:05;-23012.13;;;19.67;nan
5296;BME280;2670;42.720;23.336;2022-07-23T03:47:32;-23012.88;;;19.69;nan
5296;BME280;2670;42.720;23.336;2022-07-23T03:49:59;-23013.75;;;19.72;nan
5296;BME280;2670;42.720;23.336;2022-07-23T03:52:25;-23016.38;;;19.81;nan
5296;BME280;2670;42.720;23.336;2022-07-23T03:54:52;-23016.81;;;19.83;nan
5296;BME280;2670;42.720;23.336;2022-07-23T03:57:20;-23015.66;;;19.79;nan
5296;BME280;2670;42.720;23.336;2022-07-23T03:59:47;-23014.19;;;19.74;nan
5296;BME280;2670;42.720;23.336;2022-07-23T04:02:14;-23016.38;;;19.81;nan
5296;BME280;2670;42.720;23.336;2022-07-23T04:04:40;-23018.28;;;19.88;nan
5296;BME280;2670;42.720;23.336;2022-07-23T04:07:07;-23017.41;;;19.85;nan
5296;BME280;2670;42.720;23.336;2022-07-23T04:09:34;-23018.28;;;19.88;nan
5296;BME280;2670;42.720;23.336;2022-07-23T04:12:00;-23022.81;;;20.04;nan
5296;BME280;2670;42.720;23.336;2022-07-23T04:14:28;-23023.69;;;20.07;nan
5296;BME280;2670;42.720;23.336;2022-07-23T04:16:55;-23026.03;;;20.15;nan
5296;BME280;2670;42.720;23.336;2022-07-23T04:19:22;-23026.34;;;20.16;nan
5296;BME280;2670;42.720;23.336;2022-07-23T04:21:49;-23031.03;;;20.32;nan
5296;BME280;2670;42.720;23.336;2022-07-23T04:24:15;-23033.50;;;20.41;nan
5296;BME280;2670;42.720;23.336;2022-07-23T04:26:42;-23033.34;;;20.40;nan
5296;BME280;2670;42.720;23.336;2022-07-23T04:29:09;-23032.78;;;20.38;nan
5296;BME280;2670;42.720;23.336;2022-07-23T04:31:37;-23033.78;;;20.42;nan
5296;BME280;2670;42.720;23.336;2022-07-23T04:34:04;-23033.66;;;20.42;nan
5296;BME280;2670;42.720;23.336;2022-07-23T04:36:30;-23034.81;;;20.46;nan
5296;BME280;2670;42.720;23.336;2022-07-23T04:38:57;-23034.53;;;20.45;nan
5296;BME280;2670;42.720;23.336;2022-07-23T04:41:24;-23034.09;;;20.43;nan
5296;BME280;2670;42.720;23.336;2022-07-23T04:43:51;-23035.25;;;20.47;nan
5296;BME280;2670;42.720;23.336;2022-07-23T04:46:18;-23038.34;;;20.58;nan
5296;BME280;2670;42.720;23.336;2022-07-23T04:48:46;-23039.22;;;20.61;nan
5296;BME280;2670;42.720;23.336;2022-07-23T04:51:12;-23038.91;;;20.60;nan
5296;BME280;2670;42.720;23.336;2022-07-23T04:53:39;-23039.94;;;20.63;nan
5296;BME280;2670;42.720;23.336;2022-07-23T04:56:06;-23038.19;;;20.57;nan
5296;BME280;2670;42.720;23.336;2022-07-23T04:58:33;-23037.31;;;20.54;nan
5296;BME280;2670;42.720;23.336;2022-07-23T05:01:00;-23039.81;;;20.63;nan
5296;BME280;2670;42.720;23.336;2022-07-23T05:03:27;-23040.25;;;20.64;nan
5296;BME280;2670;42.720;23.336;2022-07-23T05:05:55;-23039.38;;;20.61;nan
5296;BME280;2670;42.720;23.336;2022-07-23T05:08:22;-23040.53;;;20.66;nan
5296;BME280;2670;42.720;23.336;2022-07-23T05:10:48;-23042.56;;;20.73;nan
5296;BME280;2670;42.720;23.336;2022-07-23T05:13:16;-23045.94;;;20.84;nan
5296;BME280;2670;42.720;23.336;2022-07-23T05:15:43;-23050.19;;;20.99;nan
5296;BME280;2670;42.720;23.336;2022-07-23T05:18:10;-23049.75;;;20.98;nan
5296;BME280;2670;42.720;23.336;2022-07-23T05:20:37;-23049.75;;;20.98;nan
5296;BME280;2670;42.720;23.336;2022-07-23T05:23:05;-23046.53;;;20.86;nan
5296;BME280;2670;42.720;23.336;2022-07-23T05:25:32;-23046.22;;;20.85;nan
5296;BME280;2670;42.720;23.336;2022-07-23T05:27:59;-23045.34;;;20.82;nan
5296;BME280;2670;42.720;23.336;2022-07-23T05:30:25;-23047.56;;;20.90;nan
5296;BME280;2670;42.720;23.336;2022-07-23T05:32:52;-23048.88;;;20.95;nan
5296;BME280;2670;42.720;23.336;2022-07-23T05:35:19;-23049.88;;;20.98;nan
5296;BME280;2670;42.720;23.336;2022-07-23T05:37:45;-23051.94;;;21.05;nan
5296;BME280;2670;42.720;23.336;2022-07-23T05:40:14;-23055.00;;;21.16;nan
5296;BME280;2670;42.720;23.336;2022-07-23T05:42:41;-23060.56;;;21.35;nan
5296;BME280;2670;42.720;23.336;2022-07-23T05:45:09;-23057.94;;;21.26;nan
5296;BME280;2670;42.720;23.336;2022-07-23T05:47:40;-23061.59;;;21.39;nan
5296;BME280;2670;42.720;23.336;2022-07-23T05:50:07;-23064.22;;;21.48;nan
5296;BME280;2670;42.720;23.336;2022-07-23T05:52:34;-23064.66;;;21.50;nan
5296;BME280;2670;42.720;23.336;2022-07-23T05:55:01;-23067.13;;;21.58;nan
5296;BME280;2670;42.720;23.336;2022-07-23T05:57:29;-23069.19;;;21.66;nan
5296;BME280;2670;42.720;23.336;2022-07-23T05:59:56;-23073.28;;;21.80;nan
5296;BME280;2670;42.720;23.336;2022-07-23T06:02:22;-23072.69;;;21.78;nan
5296;BME280;2670;42.720;23.336;2022-07-23T06:04:49;-23073.28;;;21.80;nan
5296;BME280;2670;42.720;23.336;2022-07-23T06:07:16;-23076.19;;;21.90;nan
5296;BME280;2670;42.720;23.336;2022-07-23T06:09:43;-23077.06;;;21.93;nan
5296;BME280;2670;42.720;23.336;2022-07-23T06:12:09;-23077.22;;;21.94;nan
5296;BME280;2670;42.720;23.336;2022-07-23T06:14:37;-23080.56;;;22.05;nan
5296;BME280;2670;42.720;23.336;2022-07-23T06:17:04;-23085.09;;;22.21;nan
5296;BME280;2670;42.720;23.336;2022-07-23T06:19:31;-23084.09;;;22.18;nan
5296;BME280;2670;42.720;23.336;2022-07-23T06:21:57;-23088.47;;;22.33;nan
5296;BME280;2670;42.720;23.336;2022-07-23T06:24:24;-23089.63;;;22.37;nan
5296;BME280;2670;42.720;23.336;2022-07-23T06:26:51;-23087.88;;;22.31;nan
5296;BME280;2670;42.720;23.336;2022-07-23T06:29:18;-23089.34;;;22.36;nan
5296;BME280;2670;42.720;23.336;2022-07-23T06:31:46;-23093.28;;;22.50;nan
5296;BME280;2670;42.720;23.336;2022-07-23T06:34:12;-23094.16;;;22.53;nan
5296;BME280;2670;42.720;23.336;2022-07-23T06:36:39;-23094.44;;;22.54;nan
5296;BME280;2670;42.720;23.336;2022-07-23T06:39:06;-23100.13;;;22.74;nan
5296;BME280;2670;42.720;23.336;2022-07-23T06:41:33;-23101.00;;;22.77;nan
5296;BME280;2670;42.720;23.336;2022-07-23T06:43:59;-23099.53;;;22.72;nan
5296;BME280;2670;42.720;23.336;2022-07-23T06:46:26;-23106.13;;;22.95;nan
5296;BME280;2670;42.720;23.336;2022-07-23T06:48:54;-23107.13;;;22.98;nan
5296;BME280;2670;42.720;23.336;2022-07-23T06:51:22;-23109.03;;;23.05;nan
5296;BME280;2670;42.720;23.336;2022-07-23T06:53:49;-23111.38;;;23.13;nan
5296;BME280;2670;42.720;23.336;2022-07-23T06:56:16;-23113.56;;;23.21;nan
5296;BME280;2670;42.720;23.336;2022-07-23T06:58:42;-23115.44;;;23.27;nan
5296;BME280;2670;42.720;23.336;2022-07-23T07:01:09;-23117.47;;;23.34;nan
5296;BME280;2670;42.720;23.336;2022-07-23T07:03:36;-23119.53;;;23.42;nan
5296;BME280;2670;42.720;23.336;2022-07-23T07:06:04;-23125.34;;;23.62;nan
5296;BME280;2670;42.720;23.336;2022-07-23T07:08:31;-23125.78;;;23.64;nan
5296;BME280;2670;42.720;23.336;2022-07-23T07:10:57;-23128.28;;;23.72;nan
5296;BME280;2670;42.720;23.336;2022-07-23T07:13:24;-23133.38;;;23.90;nan
5296;BME280;2670;42.720;23.336;2022-07-23T07:15:51;-23136.28;;;24.00;nan
5296;BME280;2670;42.720;23.336;2022-07-23T07:18:17;-23133.06;;;23.89;nan
5296;BME280;2670;42.720;23.336;2022-07-23T07:20:44;-23134.97;;;23.96;nan
5296;BME280;2670;42.720;23.336;2022-07-23T07:23:13;-23138.03;;;24.06;nan
5296;BME280;2670;42.720;23.336;2022-07-23T07:25:40;-23141.81;;;24.20;nan
5296;BME280;2670;42.720;23.336;2022-07-23T07:28:06;-23147.78;;;24.41;nan
5296;BME280;2670;42.720;23.336;2022-07-23T07:30:34;-23153.59;;;24.61;nan
5296;BME280;2670;42.720;23.336;2022-07-23T07:33:00;-23154.91;;;24.66;nan
5296;BME280;2670;42.720;23.336;2022-07-23T07:35:27;-23155.63;;;24.68;nan
5296;BME280;2670;42.720;23.336;2022-07-23T07:37:54;-23157.66;;;24.75;nan
5296;BME280;2670;42.720;23.336;2022-07-23T07:40:22;-23161.16;;;24.88;nan
5296;BME280;2670;42.720;23.336;2022-07-23T07:42:50;-23160.44;;;24.85;nan
5296;BME280;2670;42.720;23.336;2022-07-23T07:45:17;-23162.31;;;24.92;nan
5296;BME280;2670;42.720;23.336;2022-07-23T07:47:46;-23168.72;;;25.14;nan
5296;BME280;2670;42.720;23.336;2022-07-23T07:50:13;-23172.06;;;25.26;nan
5296;BME280;2670;42.720;23.336;2022-07-23T07:52:40;-23171.78;;;25.25;nan
5296;BME280;2670;42.720;23.336;2022-07-23T07:55:08;-23173.81;;;25.32;nan
5296;BME280;2670;42.720;23.336;2022-07-23T07:57:37;-23177.16;;;25.44;nan
5296;BME280;2670;42.720;23.336;2022-07-23T08:00:05;-23181.94;;;25.61;nan
5296;BME280;2670;42.720;23.336;2022-07-23T08:02:40;-23182.53;;;25.63;nan
5296;BME280;2670;42.720;23.336;2022-07-23T08:05:07;-23187.31;;;25.79;nan
5296;BME280;2670;42.720;23.336;2022-07-23T08:07:34;-23191.69;;;25.95;nan
5296;BME280;2670;42.720;23.336;2022-07-23T08:10:01;-23191.69;;;25.95;nan
5296;BME280;2670;42.720;23.336;2022-07-23T08:12:28;-23191.53;;;25.94;nan
5296;BME280;2670;42.720;23.336;2022-07-23T08:14:56;-23190.81;;;25.92;nan
5296;BME280;2670;42.720;23.336;2022-07-23T08:17:22;-23194.44;;;26.04;nan
5296;BME280;2670;42.720;23.336;2022-07-23T08:19:49;-23198.34;;;26.18;nan
5296;BME280;2670;42.720;23.336;2022-07-23T08:22:16;-23198.34;;;26.18;nan
5296;BME280;2670;42.720;23.336;2022-07-23T08:24:42;-23200.81;;;26.27;nan
5296;BME280;2670;42.720;23.336;2022-07-23T08:27:09;-23205.91;;;26.45;nan
5296;BME280;2670;42.720;23.336;2022-07-23T08:29:36;-23210.53;;;26.61;nan
5296;BME280;2670;42.720;23.336;2022-07-23T08:32:04;-23214.59;;;26.75;nan
5296;BME280;2670;42.720;23.336;2022-07-23T08:34:31;-23217.50;;;26.86;nan
5296;BME280;2670;42.720;23.336;2022-07-23T08:36:58;-23222.72;;;27.04;nan
5296;BME280;2670;42.720;23.336;2022-07-23T08:39:25;-23226.50;;;27.17;nan
5296;BME280;2670;42.720;23.336;2022-07-23T08:41:52;-23226.50;;;27.17;nan
5296;BME280;2670;42.720;23.336;2022-07-23T08:44:19;-23229.41;;;27.27;nan
5296;BME280;2670;42.720;23.336;2022-07-23T08:46:46;-23239.53;;;27.63;nan
5296;BME280;2670;42.720;23.336;2022-07-23T08:49:15;-23236.94;;;27.54;nan
5296;BME280;2670;42.720;23.336;2022-07-23T08:51:42;-23237.22;;;27.55;nan
5296;BME280;2670;42.720;23.336;2022-07-23T08:54:09;-23245.91;;;27.86;nan
5296;BME280;2670;42.720;23.336;2022-07-23T08:56:37;-23247.06;;;27.90;nan
5296;BME280;2670;42.720;23.336;2022-07-23T08:59:04;-23249.09;;;27.97;nan
5296;BME280;2670;42.720;23.336;2022-07-23T09:01:30;-23253.56;;;28.13;nan
5296;BME280;2670;42.720;23.336;2022-07-23T09:03:57;-23256.91;;;28.24;nan
5296;BME280;2670;42.720;23.336;2022-07-23T09:06:25;-23260.66;;;28.38;nan
5296;BME280;2670;42.720;23.336;2022-07-23T09:08:52;-23265.31;;;28.54;nan
5296;BME280;2670;42.720;23.336;2022-07-23T09:11:18;-23263.56;;;28.48;nan
5296;BME280;2670;42.720;23.336;2022-07-23T09:13:47;-23265.88;;;28.56;nan
5296;BME280;2670;42.720;23.336;2022-07-23T09:16:15;-23272.66;;;28.80;nan
5296;BME280;2670;42.720;23.336;2022-07-23T09:18:46;-23275.84;;;28.91;nan
5296;BME280;2670;42.720;23.336;2022-07-23T09:21:25;-23278.16;;;28.99;nan
5296;BME280;2670;42.720;23.336;2022-07-23T09:23:58;-23279.47;;;29.04;nan
5296;BME280;2670;42.720;23.336;2022-07-23T09:26:31;-23284.38;;;29.21;nan
5296;BME280;2670;42.720;23.336;2022-07-23T09:29:07;-23285.97;;;29.27;nan
5296;BME280;2670;42.720;23.336;2022-07-23T09:31:48;-23292.19;;;29.49;nan
5296;BME280;2670;42.720;23.336;2022-07-23T09:34:19;-23294.50;;;29.57;nan
5296;BME280;2670;42.720;23.336;2022-07-23T09:36:47;-23299.69;;;29.75;nan
5296;BME280;2670;42.720;23.336;2022-07-23T09:39:15;-23306.63;;;30.00;nan
5296;BME280;2670;42.720;23.336;2022-07-23T09:41:48;-23307.06;;;30.01;nan
5296;BME280;2670;42.720;23.336;2022-07-23T09:44:17;-23312.25;;;30.20;nan
5296;BME280;2670;42.720;23.336;2022-07-23T09:46:45;-23314.41;;;30.27;nan
5296;BME280;2670;42.720;23.336;2022-07-23T09:49:15;-23318.75;;;30.43;nan
5296;BME280;2670;42.720;23.336;2022-07-23T09:51:48;-23317.59;;;30.39;nan
5296;BME280;2670;42.720;23.336;2022-07-23T09:54:31;-23323.78;;;30.61;nan
5296;BME280;2670;42.720;23.336;2022-07-23T09:57:00;-23329.41;;;30.81;nan
5296;BME280;2670;42.720;23.336;2022-07-23T09:59:29;-23335.03;;;31.00;nan
5296;BME280;2670;42.720;23.336;2022-07-23T10:01:57;-23335.47;;;31.02;nan
5296;BME280;2670;42.720;23.336;2022-07-23T10:04:25;-23344.69;;;31.35;nan
5296;BME280;2670;42.720;23.336;2022-07-23T10:06:55;-23351.44;;;31.59;nan
5296;BME280;2670;42.720;23.336;2022-07-23T10:09:25;-23349.28;;;31.51;nan
5296;BME280;2670;42.720;23.336;2022-07-23T10:11:57;-23354.31;;;31.69;nan
5296;BME280;2670;42.720;23.336;2022-07-23T10:14:44;-23355.63;;;31.73;nan
5296;BME280;2670;42.720;23.336;2022-07-23T10:17:11;-23356.47;;;31.77;nan
5296;BME280;2670;42.720;23.336;2022-07-23T10:19:38;-23363.25;;;32.01;nan
5296;BME280;2670;42.720;23.336;2022-07-23T10:22:08;-23363.97;;;32.03;nan
5296;BME280;2670;42.720;23.336;2022-07-23T10:24:58;-23367.72;;;32.16;nan
5296;BME280;2670;42.720;23.336;2022-07-23T10:30:40;-23374.63;;;32.41;nan
5296;BME280;2670;42.720;23.336;2022-07-23T10:33:18;-23377.78;;;32.52;nan
5296;BME280;2670;42.720;23.336;2022-07-23T10:35:50;-23383.09;;;32.71;nan
5296;BME280;2670;42.720;23.336;2022-07-23T10:38:25;-23385.81;;;32.81;nan
5296;BME280;2670;42.720;23.336;2022-07-23T10:40:55;-23393.00;;;33.06;nan
5296;BME280;2670;42.720;23.336;2022-07-23T10:43:22;-23396.75;;;33.19;nan
5296;BME280;2670;42.720;23.336;2022-07-23T10:45:49;-23400.91;;;33.34;nan
5296;BME280;2670;42.720;23.336;2022-07-23T10:48:18;-23397.16;;;33.21;nan
5296;BME280;2670;42.720;23.336;2022-07-23T10:51:06;-23395.00;;;33.13;nan
5296;BME280;2670;42.720;23.336;2022-07-23T10:53:54;-23395.88;;;33.16;nan
5296;BME280;2670;42.720;23.336;2022-07-23T10:57:04;-23399.03;;;33.28;nan
5296;BME280;2670;42.720;23.336;2022-07-23T11:02:38;-23406.06;;;33.53;nan
5296;BME280;2670;42.720;23.336;2022-07-23T11:05:08;-23408.06;;;33.60;nan
5296;BME280;2670;42.720;23.336;2022-07-23T11:07:36;-23411.09;;;33.70;nan
5296;BME280;2670;42.720;23.336;2022-07-23T11:10:05;-23418.13;;;33.95;nan
5296;BME280;2670;42.720;23.336;2022-07-23T11:12:34;-23416.69;;;33.90;nan
5296;BME280;2670;42.720;23.336;2022-07-23T11:15:06;-23413.38;;;33.79;nan
5296;BME280;2670;42.720;23.336;2022-07-23T11:17:35;-23414.53;;;33.83;nan
5296;BME280;2670;42.720;23.336;2022-07-23T11:20:19;-23416.41;;;33.89;nan
5296;BME280;2670;42.720;23.336;2022-07-23T11:22:51;-23411.81;;;33.73;nan
5296;BME280;2670;42.720;23.336;2022-07-23T11:25:33;-23410.81;;;33.69;nan
5296;BME280;2670;42.720;23.336;2022-07-23T11:28:11;-23416.53;;;33.90;nan
5296;BME280;2670;42.720;23.336;2022-07-23T11:30:42;-23419.69;;;34.01;nan
5296;BME280;2670;42.720;23.336;2022-07-23T11:33:21;-23421.56;;;34.08;nan
5296;BME280;2670;42.720;23.336;2022-07-23T11:36:00;-23423.28;;;34.14;nan
5296;BME280;2670;42.720;23.336;2022-07-23T11:38:30;-23424.00;;;34.16;nan
5296;BME280;2670;42.720;23.336;2022-07-23T11:40:59;-23428.00;;;34.31;nan
5296;BME280;2670;42.720;23.336;2022-07-23T11:43:26;-23426.72;;;34.26;nan
5296;BME280;2670;42.720;23.336;2022-07-23T11:45:56;-23424.84;;;34.19;nan
5296;BME280;2670;42.720;23.336;2022-07-23T11:48:26;-23426.88;;;34.27;nan
5296;BME280;2670;42.720;23.336;2022-07-23T11:50:54;-23428.28;;;34.32;nan
5296;BME280;2670;42.720;23.336;2022-07-23T11:53:23;-23427.16;;;34.28;nan
5296;BME280;2670;42.720;23.336;2022-07-23T11:55:50;-23431.31;;;34.42;nan
5296;BME280;2670;42.720;23.336;2022-07-23T11:58:18;-23429.16;;;34.35;nan
5296;BME280;2670;42.720;23.336;2022-07-23T12:00:45;-23427.00;;;34.27;nan
5296;BME280;2670;42.720;23.336;2022-07-23T12:03:12;-23429.28;;;34.35;nan
5296;BME280;2670;42.720;23.336;2022-07-23T12:05:39;-23426.56;;;34.26;nan
5296;BME280;2670;42.720;23.336;2022-07-23T12:08:07;-23430.72;;;34.40;nan
5296;BME280;2670;42.720;23.336;2022-07-23T12:10:36;-23429.16;;;34.35;nan
5296;BME280;2670;42.720;23.336;2022-07-23T12:13:04;-23436.31;;;34.60;nan
5296;BME280;2670;42.720;23.336;2022-07-23T12:15:34;-23435.75;;;34.58;nan
5296;BME280;2670;42.720;23.336;2022-07-23T12:18:04;-23433.03;;;34.49;nan
5296;BME280;2670;42.720;23.336;2022-07-23T12:20:34;-23436.03;;;34.59;nan
5296;BME280;2670;42.720;23.336;2022-07-23T12:23:03;-23438.03;;;34.66;nan
5296;BME280;2670;42.720;23.336;2022-07-23T12:25:31;-23442.63;;;34.83;nan
5296;BME280;2670;42.720;23.336;2022-07-23T12:28:03;-23441.19;;;34.78;nan
5296;BME280;2670;42.720;23.336;2022-07-23T12:30:35;-23437.19;;;34.63;nan
5296;BME280;2670;42.720;23.336;2022-07-23T12:33:04;-23436.63;;;34.61;nan
5296;BME280;2670;42.720;23.336;2022-07-23T12:35:36;-23440.34;;;34.75;nan
5296;BME280;2670;42.720;23.336;2022-07-23T12:38:07;-23445.47;;;34.93;nan
5296;BME280;2670;42.720;23.336;2022-07-23T12:40:37;-23444.34;;;34.89;nan
5296;BME280;2670;42.720;23.336;2022-07-23T12:43:06;-23443.47;;;34.86;nan
5296;BME280;2670;42.720;23.336;2022-07-23T12:45:46;-23437.47;;;34.64;nan
5296;BME280;2670;42.720;23.336;2022-07-23T12:48:19;-23439.47;;;34.72;nan
5296;BME280;2670;42.720;23.336;2022-07-23T12:51:04;-23441.75;;;34.80;nan
5296;BME280;2670;42.720;23.336;2022-07-23T12:53:32;-23438.91;;;34.69;nan
5296;BME280;2670;42.720;23.336;2022-07-23T12:56:03;-23437.59;;;34.65;nan
5296;BME280;2670;42.720;23.336;2022-07-23T12:58:40;-23447.22;;;34.99;nan
5296;BME280;2670;42.720;23.336;2022-07-23T13:01:09;-23443.47;;;34.86;nan
5296;BME280;2670;42.720;23.336;2022-07-23T13:03:38;-23442.34;;;34.82;nan
5296;BME280;2670;42.720;23.336;2022-07-23T13:06:07;-23441.75;;;34.80;nan
5296;BME280;2670;42.720;23.336;2022-07-23T13:08:35;-23443.78;;;34.87;nan
5296;BME280;2670;42.720;23.336;2022-07-23T13:11:03;-23445.63;;;34.93;nan
5296;BME280;2670;42.720;23.336;2022-07-23T13:13:33;-23444.47;;;34.89;nan
5296;BME280;2670;42.720;23.336;2022-07-23T13:16:00;-23447.78;;;35.01;nan
5296;BME280;2670;42.720;23.336;2022-07-23T13:18:28;-23444.91;;;34.91;nan
5296;BME280;2670;42.720;23.336;2022-07-23T13:20:55;-23450.34;;;35.10;nan
5296;BME280;2670;42.720;23.336;2022-07-23T13:23:22;-23451.34;;;35.14;nan
5296;BME280;2670;42.720;23.336;2022-07-23T13:25:50;-23449.78;;;35.08;nan
5296;BME280;2670;42.720;23.336;2022-07-23T13:28:18;-23447.50;;;35.00;nan
5296;BME280;2670;42.720;23.336;2022-07-23T13:30:47;-23450.06;;;35.09;nan
5296;BME280;2670;42.720;23.336;2022-07-23T13:33:15;-23450.22;;;35.10;nan
5296;BME280;2670;42.720;23.336;2022-07-23T13:35:43;-23455.22;;;35.28;nan